Time;durP1;ratioP1;P1;durP2;ratioP2;P2;SDS_P1;SDS_P2;PMS_P1;PMS_P2;Temp;Humidity;BMP_temperature;BMP_pressure;BME280_temperature;BME280_humidity;BME280_pressure;Samples;Min_cycle;Max_cycle;Signal;HPM_P1;HPM_P2
2023/06/29 00:01:03;;;;;;;6.87;4.20;;;23.80;80.50;;;;;;4964705;28;20489;-19
2023/06/29 00:03:33;;;;;;;6.55;4.30;;;23.80;80.60;;;;;;4956328;28;20235;-19
2023/06/29 00:05:59;;;;;;;7.85;4.25;;;23.80;80.80;;;;;;4960867;28;20038;-19
2023/06/29 00:08:27;;;;;;;7.32;4.30;;;23.80;80.80;;;;;;4956025;28;20268;-19
2023/06/29 00:10:53;;;;;;;6.78;4.43;;;23.70;80.80;;;;;;4943041;28;20026;-19
2023/06/29 00:13:19;;;;;;;7.07;4.37;;;23.70;80.90;;;;;;4966212;28;20022;-19
2023/06/29 00:15:46;;;;;;;7.78;4.55;;;23.70;80.90;;;;;;4953310;28;20160;-19
2023/06/29 00:18:13;;;;;;;7.38;4.47;;;23.70;80.90;;;;;;4960402;28;20078;-19
2023/06/29 00:20:40;;;;;;;6.72;4.40;;;23.70;81.00;;;;;;4955208;28;20662;-19
2023/06/29 00:23:05;;;;;;;7.40;4.23;;;23.60;81.10;;;;;;4967374;28;20133;-19
2023/06/29 00:25:32;;;;;;;6.90;4.40;;;23.60;81.10;;;;;;4948190;28;20137;-20
2023/06/29 00:27:58;;;;;;;6.68;4.40;;;23.60;81.30;;;;;;4962795;28;20034;-19
2023/06/29 00:30:24;;;;;;;7.38;4.70;;;23.60;81.30;;;;;;4974753;28;20035;-19
2023/06/29 00:32:49;;;;;;;8.73;5.10;;;23.60;81.40;;;;;;4958848;28;20050;-19
2023/06/29 00:35:15;;;;;;;7.47;4.65;;;23.60;81.50;;;;;;4960132;28;20065;-19
2023/06/29 00:37:44;;;;;;;8.67;4.77;;;23.60;81.60;;;;;;4955534;28;20038;-19
2023/06/29 00:40:10;;;;;;;7.07;4.57;;;23.60;81.80;;;;;;4959375;28;20065;-19
2023/06/29 00:42:36;;;;;;;6.88;4.50;;;23.50;81.80;;;;;;4965570;28;20609;-19
2023/06/29 00:45:04;;;;;;;7.65;4.55;;;23.50;81.80;;;;;;4968625;28;20022;-18
2023/06/29 00:47:31;;;;;;;6.50;4.38;;;23.50;82.00;;;;;;4966826;28;20090;-19
2023/06/29 00:49:57;;;;;;;7.17;4.23;;;23.50;82.00;;;;;;4966468;28;20360;-19
2023/06/29 00:52:23;;;;;;;7.25;4.25;;;23.50;82.20;;;;;;4948973;28;20113;-19
2023/06/29 00:54:49;;;;;;;7.05;4.55;;;23.50;82.30;;;;;;4940355;28;20128;-19
2023/06/29 00:57:16;;;;;;;7.60;4.65;;;23.50;82.40;;;;;;4971362;28;20053;-19
2023/06/29 00:59:42;;;;;;;7.40;4.63;;;23.50;82.40;;;;;;4949305;28;20054;-19
2023/06/29 01:02:09;;;;;;;8.02;4.57;;;23.50;82.40;;;;;;4985322;28;20035;-19
2023/06/29 01:04:37;;;;;;;7.20;4.78;;;23.50;82.50;;;;;;4978575;28;20050;-19
2023/06/29 01:07:03;;;;;;;8.20;4.93;;;23.40;82.50;;;;;;4953796;28;20034;-19
2023/06/29 01:09:29;;;;;;;7.95;4.78;;;23.40;82.50;;;;;;4957419;28;20046;-20
2023/06/29 01:11:58;;;;;;;8.83;5.00;;;23.40;82.50;;;;;;4939850;28;20710;-19
2023/06/29 01:14:26;;;;;;;7.50;4.70;;;23.30;82.50;;;;;;4951073;28;20026;-19
2023/06/29 01:16:55;;;;;;;8.40;5.15;;;23.30;82.60;;;;;;4965621;28;20035;-19
2023/06/29 01:19:29;;;;;;;8.07;4.65;;;23.20;82.70;;;;;;4964960;28;20035;-19
2023/06/29 01:22:03;;;;;;;7.85;5.07;;;23.20;83.00;;;;;;4955977;28;20974;-20
2023/06/29 01:24:39;;;;;;;8.07;4.90;;;23.20;82.90;;;;;;4962307;28;20030;-19
2023/06/29 01:27:08;;;;;;;7.47;4.50;;;23.10;83.00;;;;;;4945730;28;20026;-19
2023/06/29 01:29:35;;;;;;;8.02;4.72;;;23.10;83.00;;;;;;4968687;28;20029;-19
2023/06/29 01:32:03;;;;;;;6.97;4.65;;;23.00;82.80;;;;;;4986128;28;20236;-19
2023/06/29 01:34:31;;;;;;;8.82;4.88;;;23.00;82.80;;;;;;4986558;28;20023;-19
2023/06/29 01:37:12;;;;;;;8.23;5.00;;;23.00;83.00;;;;;;4954340;28;20031;-19
2023/06/29 01:40:01;;;;;;;7.65;4.43;;;22.90;83.20;;;;;;4959331;28;20035;-19
2023/06/29 01:42:30;;;;;;;7.30;4.45;;;22.90;83.60;;;;;;4969043;28;20030;-19
2023/06/29 01:44:57;;;;;;;8.45;4.40;;;22.80;83.30;;;;;;4923188;28;20046;-19
2023/06/29 01:47:24;;;;;;;7.50;4.65;;;22.80;83.30;;;;;;4982857;28;20311;-20
2023/06/29 01:49:50;;;;;;;8.30;4.27;;;22.80;83.30;;;;;;4964270;28;20038;-19
2023/06/29 01:52:16;;;;;;;8.20;4.75;;;22.70;83.40;;;;;;4953885;28;20085;-19
2023/06/29 01:54:42;;;;;;;7.15;4.80;;;22.70;83.40;;;;;;4962042;28;20019;-20
2023/06/29 01:57:08;;;;;;;7.57;4.97;;;22.70;83.60;;;;;;4971255;28;20030;-20
2023/06/29 01:59:34;;;;;;;9.00;5.10;;;22.60;83.60;;;;;;4960413;28;20287;-18
2023/06/29 02:01:59;;;;;;;6.97;4.50;;;22.60;83.60;;;;;;4970138;28;20463;-19
2023/06/29 02:04:25;;;;;;;8.20;4.72;;;22.60;83.70;;;;;;4963232;28;20659;-19
2023/06/29 02:06:51;;;;;;;7.83;4.60;;;22.50;83.80;;;;;;4982984;28;20429;-19
2023/06/29 02:09:17;;;;;;;8.18;5.10;;;22.50;83.90;;;;;;4949041;28;20505;-19
2023/06/29 02:11:43;;;;;;;8.20;5.00;;;22.50;84.00;;;;;;4974299;28;20504;-20
2023/06/29 02:14:08;;;;;;;8.55;4.93;;;22.50;84.20;;;;;;4940126;28;20073;-19
2023/06/29 02:16:35;;;;;;;7.37;4.57;;;22.40;84.30;;;;;;4970971;28;20026;-19
2023/06/29 02:19:00;;;;;;;7.40;4.57;;;22.40;84.50;;;;;;4971881;28;20133;-19
2023/06/29 02:21:26;;;;;;;8.57;4.95;;;22.40;84.70;;;;;;4964262;28;20734;-19
2023/06/29 02:23:52;;;;;;;7.13;4.43;;;22.40;84.90;;;;;;4954898;28;20089;-19
2023/06/29 02:26:18;;;;;;;8.13;5.15;;;22.40;85.00;;;;;;4955358;28;20042;-18
2023/06/29 02:28:43;;;;;;;9.63;5.37;;;22.40;85.00;;;;;;4973051;28;20018;-19
2023/06/29 02:31:09;;;;;;;9.90;5.43;;;22.50;85.10;;;;;;4941367;28;20038;-19
2023/06/29 02:33:35;;;;;;;9.77;5.40;;;22.40;85.10;;;;;;4972347;28;20053;-20
2023/06/29 02:36:00;;;;;;;10.63;5.28;;;22.50;85.20;;;;;;4961831;28;20688;-19
2023/06/29 02:38:26;;;;;;;10.40;5.70;;;22.50;85.10;;;;;;4970253;28;20027;-19
2023/06/29 02:40:52;;;;;;;11.48;5.82;;;22.50;85.50;;;;;;4964686;28;20552;-19
2023/06/29 02:43:18;;;;;;;10.17;5.70;;;22.50;84.90;;;;;;4965813;28;20038;-19
2023/06/29 02:45:44;;;;;;;12.40;6.22;;;22.50;84.70;;;;;;4945708;28;20046;-19
2023/06/29 02:48:09;;;;;;;10.27;6.00;;;22.50;84.60;;;;;;4972040;28;20327;-19
2023/06/29 02:50:35;;;;;;;9.57;5.83;;;22.50;84.50;;;;;;4959837;28;20105;-19
2023/06/29 02:53:01;;;;;;;10.82;6.68;;;22.50;84.50;;;;;;4967201;28;20038;-19
2023/06/29 02:55:29;;;;;;;11.48;6.70;;;22.50;84.50;;;;;;4963635;28;20382;-19
2023/06/29 02:57:55;;;;;;;11.07;6.00;;;22.50;84.50;;;;;;4962163;28;20493;-19
2023/06/29 03:00:20;;;;;;;10.80;6.05;;;22.50;84.50;;;;;;4956210;28;20074;-19
2023/06/29 03:02:46;;;;;;;11.10;6.00;;;22.50;84.50;;;;;;4972965;28;20034;-18
2023/06/29 03:05:12;;;;;;;10.90;6.10;;;22.40;84.40;;;;;;4959772;28;20089;-19
2023/06/29 03:07:38;;;;;;;10.73;5.63;;;22.40;84.50;;;;;;4961549;28;20037;-18
2023/06/29 03:10:04;;;;;;;12.63;6.70;;;22.40;84.50;;;;;;4952928;28;20030;-19
2023/06/29 03:12:30;;;;;;;10.35;6.25;;;22.40;84.50;;;;;;4959963;28;20041;-19
2023/06/29 03:14:55;;;;;;;10.40;6.05;;;22.40;84.70;;;;;;4945562;28;20035;-19
2023/06/29 03:17:21;;;;;;;11.23;6.50;;;22.40;84.70;;;;;;4958016;28;20030;-19
2023/06/29 03:19:47;;;;;;;10.48;6.25;;;22.40;84.60;;;;;;4964298;28;20126;-19
2023/06/29 03:22:13;;;;;;;10.90;6.03;;;22.40;84.60;;;;;;4963587;28;20031;-19
2023/06/29 03:24:38;;;;;;;10.60;6.32;;;22.40;84.60;;;;;;4960662;28;20679;-19
2023/06/29 03:27:06;;;;;;;11.30;6.35;;;22.40;84.60;;;;;;4975231;28;20473;-18
2023/06/29 03:29:32;;;;;;;12.63;6.50;;;22.40;84.60;;;;;;4957709;28;20110;-19
2023/06/29 03:31:59;;;;;;;10.48;5.88;;;22.40;84.70;;;;;;4970473;28;20069;-18
2023/06/29 03:34:26;;;;;;;11.60;5.95;;;22.40;84.70;;;;;;4968865;28;20031;-19
2023/06/29 03:36:52;;;;;;;12.90;6.25;;;22.40;84.80;;;;;;4959198;28;20332;-18
2023/06/29 03:39:18;;;;;;;9.53;5.90;;;22.40;84.90;;;;;;4966769;28;20037;-19
2023/06/29 03:41:43;;;;;;;12.20;6.53;;;22.40;84.90;;;;;;4965873;28;20050;-19
2023/06/29 03:44:09;;;;;;;11.05;6.00;;;22.40;84.90;;;;;;4969303;28;20022;-19
2023/06/29 03:46:36;;;;;;;11.10;6.07;;;22.40;84.90;;;;;;4946230;28;20041;-19
2023/06/29 03:49:02;;;;;;;10.93;6.32;;;22.40;85.00;;;;;;4970034;28;20073;-19
2023/06/29 03:51:27;;;;;;;11.32;6.45;;;22.40;85.00;;;;;;4959216;28;20030;-19
2023/06/29 03:53:53;;;;;;;11.93;6.17;;;22.40;85.00;;;;;;4961224;28;20086;-19
2023/06/29 03:56:18;;;;;;;12.27;6.38;;;22.40;85.00;;;;;;4959733;28;20753;-19
2023/06/29 03:58:44;;;;;;;12.53;6.50;;;22.40;84.90;;;;;;4957195;28;20320;-19
2023/06/29 04:01:10;;;;;;;12.13;6.83;;;22.40;85.00;;;;;;4942116;28;20572;-19
2023/06/29 04:03:36;;;;;;;11.23;6.15;;;22.40;84.90;;;;;;4964782;28;20031;-19
2023/06/29 04:06:01;;;;;;;12.43;6.50;;;22.40;84.90;;;;;;4961466;28;20490;-19
2023/06/29 04:08:27;;;;;;;12.00;6.57;;;22.40;84.90;;;;;;4953894;28;20062;-19
2023/06/29 04:10:53;;;;;;;11.18;6.22;;;22.40;84.90;;;;;;4971947;28;20399;-18
2023/06/29 04:13:19;;;;;;;11.77;6.27;;;22.30;84.80;;;;;;4964895;28;20042;-19
2023/06/29 04:15:45;;;;;;;12.83;6.53;;;22.20;84.70;;;;;;4941260;28;20706;-18
2023/06/29 04:18:11;;;;;;;10.05;6.20;;;22.20;84.80;;;;;;4969623;28;20021;-19
2023/06/29 04:20:37;;;;;;;9.87;5.47;;;22.20;84.90;;;;;;4982274;28;20046;-18
2023/06/29 04:23:03;;;;;;;10.82;6.10;;;22.10;85.00;;;;;;4961468;28;20034;-19
2023/06/29 04:25:28;;;;;;;11.63;6.47;;;22.10;85.00;;;;;;4960396;28;20028;-19
2023/06/29 04:27:54;;;;;;;11.07;6.43;;;22.10;85.20;;;;;;4959759;28;20300;-19
2023/06/29 04:30:20;;;;;;;12.30;6.65;;;22.10;85.20;;;;;;4948377;28;20034;-19
2023/06/29 04:32:46;;;;;;;10.27;5.90;;;22.10;85.40;;;;;;4940444;28;20328;-19
2023/06/29 04:35:13;;;;;;;11.05;6.45;;;22.10;85.50;;;;;;4973883;28;20521;-18
2023/06/29 04:37:42;;;;;;;10.77;6.13;;;22.10;85.50;;;;;;4955918;28;20208;-18
2023/06/29 04:40:14;;;;;;;11.30;6.10;;;22.10;85.60;;;;;;4961553;28;20626;-19
2023/06/29 04:42:47;;;;;;;10.90;6.25;;;22.10;85.70;;;;;;4956713;28;20697;-19
2023/06/29 04:45:17;;;;;;;11.07;6.28;;;22.10;85.60;;;;;;4960097;28;20078;-19
2023/06/29 04:47:50;;;;;;;13.02;5.97;;;22.00;85.70;;;;;;4952194;28;20026;-19
2023/06/29 04:50:24;;;;;;;12.15;6.60;;;22.00;85.60;;;;;;4973663;28;20429;-19
2023/06/29 04:52:58;;;;;;;9.67;6.00;;;22.00;85.50;;;;;;4967098;28;20828;-18
2023/06/29 04:55:24;;;;;;;11.82;6.28;;;22.00;85.50;;;;;;4962300;28;20373;-19
2023/06/29 04:57:51;;;;;;;11.15;6.13;;;22.00;85.50;;;;;;4968107;28;20651;-19
2023/06/29 05:00:19;;;;;;;10.70;6.15;;;22.00;85.60;;;;;;4957376;28;20092;-19
2023/06/29 05:02:45;;;;;;;11.10;6.28;;;22.00;85.70;;;;;;4911583;28;20065;-19
2023/06/29 05:05:11;;;;;;;10.50;5.73;;;22.00;85.80;;;;;;4969163;28;20270;-19
2023/06/29 05:07:38;;;;;;;10.85;6.30;;;22.00;85.90;;;;;;4972283;28;20034;-19
2023/06/29 05:10:05;;;;;;;11.35;5.95;;;22.00;86.00;;;;;;4951661;28;20035;-18
2023/06/29 05:12:30;;;;;;;12.43;6.37;;;22.00;86.10;;;;;;4970623;28;20030;-19
2023/06/29 05:14:56;;;;;;;11.48;6.30;;;22.10;86.20;;;;;;4951630;28;20425;-19
2023/06/29 05:17:22;;;;;;;10.70;6.40;;;22.10;86.20;;;;;;4975860;28;20036;-18
2023/06/29 05:19:48;;;;;;;12.02;6.88;;;22.10;86.30;;;;;;4955439;28;20030;-19
2023/06/29 05:22:14;;;;;;;11.52;6.28;;;22.10;86.40;;;;;;4966200;28;20228;-19
2023/06/29 05:24:40;;;;;;;12.07;6.13;;;22.10;86.50;;;;;;4963362;28;20035;-19
2023/06/29 05:27:06;;;;;;;10.93;6.05;;;22.10;86.50;;;;;;4972871;28;20396;-19
2023/06/29 05:29:32;;;;;;;11.43;6.20;;;22.20;86.60;;;;;;4965486;28;20038;-18
2023/06/29 05:31:58;;;;;;;12.10;6.30;;;22.20;86.70;;;;;;4943129;28;20030;-19
2023/06/29 05:34:24;;;;;;;11.95;6.43;;;22.20;86.80;;;;;;4941310;28;20512;-19
2023/06/29 05:36:49;;;;;;;12.23;6.70;;;22.30;87.00;;;;;;4959277;28;20497;-19
2023/06/29 05:39:15;;;;;;;12.90;6.68;;;22.40;87.20;;;;;;4964922;28;20456;-19
2023/06/29 05:41:41;;;;;;;13.27;7.30;;;22.40;87.30;;;;;;4960161;28;20033;-19
2023/06/29 05:44:08;;;;;;;12.40;6.70;;;22.50;87.30;;;;;;4966914;28;20035;-19
2023/06/29 05:46:34;;;;;;;11.75;6.57;;;22.50;87.30;;;;;;4955120;28;20034;-19
2023/06/29 05:49:00;;;;;;;13.27;7.05;;;22.60;87.20;;;;;;4925783;28;20320;-19
2023/06/29 05:51:26;;;;;;;12.88;6.72;;;22.70;87.00;;;;;;4982323;28;20049;-26
2023/06/29 05:53:52;;;;;;;14.20;6.60;;;22.70;86.80;;;;;;4950171;28;20054;-19
2023/06/29 05:56:18;;;;;;;15.55;7.03;;;22.70;86.60;;;;;;4957250;28;20038;-19
2023/06/29 05:58:44;;;;;;;13.23;7.00;;;22.70;86.40;;;;;;4966622;28;20034;-19
2023/06/29 06:01:09;;;;;;;15.63;6.90;;;22.80;86.50;;;;;;4955257;28;20297;-19
2023/06/29 06:03:35;;;;;;;19.20;7.43;;;22.80;86.60;;;;;;4943210;28;20037;-18
2023/06/29 06:06:02;;;;;;;13.80;7.07;;;22.90;86.90;;;;;;4964477;28;20479;-19
2023/06/29 06:08:28;;;;;;;12.33;6.60;;;22.90;87.10;;;;;;4966533;28;20270;-19
2023/06/29 06:10:53;;;;;;;15.18;7.60;;;23.00;87.40;;;;;;4947780;28;20034;-19
2023/06/29 06:13:19;;;;;;;15.38;7.68;;;23.00;87.40;;;;;;4960312;28;20030;-19
2023/06/29 06:15:45;;;;;;;13.07;7.03;;;23.10;87.40;;;;;;4975981;28;20030;-19
2023/06/29 06:18:10;;;;;;;13.73;7.00;;;23.20;87.40;;;;;;4950393;28;20123;-19
2023/06/29 06:20:36;;;;;;;14.27;7.30;;;23.30;87.50;;;;;;4979028;28;21094;-18
2023/06/29 06:23:02;;;;;;;13.60;7.45;;;23.40;87.40;;;;;;4972166;28;20141;-18
2023/06/29 06:25:28;;;;;;;12.93;7.63;;;23.50;87.20;;;;;;4943325;28;20487;-19
2023/06/29 06:27:53;;;;;;;13.60;7.55;;;23.50;87.20;;;;;;4959673;28;20050;-19
2023/06/29 06:30:20;;;;;;;14.10;7.23;;;23.60;87.00;;;;;;4968007;28;20085;-18
2023/06/29 06:32:46;;;;;;;12.00;6.93;;;23.70;87.00;;;;;;4955893;28;20053;-19
2023/06/29 06:35:12;;;;;;;12.55;7.35;;;23.80;87.00;;;;;;4954694;28;20038;-18
2023/06/29 06:37:39;;;;;;;12.90;7.32;;;23.90;86.80;;;;;;4967524;28;20030;-19
2023/06/29 06:40:07;;;;;;;11.55;7.35;;;23.90;86.40;;;;;;4951882;28;20061;-19
2023/06/29 06:42:35;;;;;;;11.37;6.77;;;23.90;86.20;;;;;;4964457;28;20026;-19
2023/06/29 06:45:03;;;;;;;11.75;7.18;;;24.00;86.10;;;;;;4950505;28;20038;-19
2023/06/29 06:47:33;;;;;;;12.23;6.95;;;24.00;86.20;;;;;;4968182;28;20051;-19
2023/06/29 06:50:00;;;;;;;12.20;7.28;;;24.00;85.90;;;;;;4926518;28;20280;-19
2023/06/29 06:52:26;;;;;;;13.80;7.43;;;24.00;85.90;;;;;;4967672;28;20550;-19
2023/06/29 06:54:52;;;;;;;13.07;7.00;;;24.10;85.90;;;;;;4953404;28;20029;-19
2023/06/29 06:57:18;;;;;;;12.75;6.97;;;24.10;86.10;;;;;;4979995;28;20034;-19
2023/06/29 06:59:44;;;;;;;12.00;6.70;;;24.20;86.00;;;;;;4958600;28;20085;-19
2023/06/29 07:02:10;;;;;;;12.83;6.87;;;24.20;86.00;;;;;;4968260;28;20153;-19
2023/06/29 07:04:36;;;;;;;11.73;6.63;;;24.20;85.90;;;;;;4974838;28;20069;-19
2023/06/29 07:07:02;;;;;;;12.82;7.07;;;24.30;85.90;;;;;;4941694;28;20403;-19
2023/06/29 07:09:28;;;;;;;12.30;7.20;;;24.40;85.40;;;;;;4969536;28;20026;-19
2023/06/29 07:11:53;;;;;;;14.13;7.40;;;24.40;85.20;;;;;;4953596;28;20047;-19
2023/06/29 07:14:21;;;;;;;12.37;7.13;;;24.40;85.00;;;;;;4968100;28;20123;-19
2023/06/29 07:16:47;;;;;;;11.88;7.28;;;24.40;84.60;;;;;;4965951;28;20053;-19
2023/06/29 07:19:14;;;;;;;13.13;7.00;;;24.40;84.50;;;;;;4954609;28;20171;-19
2023/06/29 07:21:40;;;;;;;12.82;7.72;;;24.50;84.50;;;;;;4941773;28;20050;-19
2023/06/29 07:24:07;;;;;;;12.77;7.27;;;24.50;84.30;;;;;;4955961;28;20141;-19
2023/06/29 07:26:33;;;;;;;16.55;7.40;;;24.50;84.30;;;;;;4952450;28;20053;-19
2023/06/29 07:28:58;;;;;;;14.02;7.57;;;24.50;84.30;;;;;;4961753;28;20153;-19
2023/06/29 07:31:26;;;;;;;11.43;7.00;;;24.40;84.20;;;;;;4967129;28;20489;-19
2023/06/29 07:33:55;;;;;;;12.23;7.28;;;24.40;84.00;;;;;;4956878;28;20034;-19
2023/06/29 07:36:26;;;;;;;13.82;7.38;;;24.50;83.90;;;;;;4941174;28;20049;-19
2023/06/29 07:38:52;;;;;;;13.15;7.32;;;24.40;84.10;;;;;;4963529;28;20093;-19
2023/06/29 07:41:18;;;;;;;13.27;7.40;;;24.40;84.00;;;;;;4966813;28;20030;-18
2023/06/29 07:43:51;;;;;;;16.23;7.43;;;24.40;83.90;;;;;;4949631;28;20561;-19
2023/06/29 07:46:16;;;;;;;13.40;7.03;;;24.40;83.50;;;;;;4966878;28;20022;-19
2023/06/29 07:48:42;;;;;;;14.60;7.25;;;24.40;84.00;;;;;;4966675;28;20022;-19
2023/06/29 07:51:09;;;;;;;14.05;7.05;;;24.50;84.10;;;;;;4929442;28;20441;-18
2023/06/29 07:53:35;;;;;;;12.83;6.90;;;24.50;84.40;;;;;;4968390;28;20026;-19
2023/06/29 07:56:00;;;;;;;12.65;7.20;;;24.50;84.40;;;;;;4963517;28;20357;-18
2023/06/29 07:58:27;;;;;;;13.70;7.60;;;24.60;84.70;;;;;;4953330;28;20427;-18
2023/06/29 08:00:54;;;;;;;11.85;7.28;;;24.70;85.00;;;;;;4965427;28;20046;-19
2023/06/29 08:03:19;;;;;;;11.90;6.87;;;24.80;84.60;;;;;;4969539;28;20053;-19
2023/06/29 08:05:45;;;;;;;13.48;7.45;;;24.90;84.50;;;;;;4954475;28;20023;-19
2023/06/29 08:08:12;;;;;;;12.27;7.30;;;24.90;84.00;;;;;;4969885;28;20046;-19
2023/06/29 08:10:38;;;;;;;13.33;7.27;;;25.00;83.70;;;;;;4985267;28;20324;-19
2023/06/29 08:13:04;;;;;;;12.13;7.35;;;25.00;83.40;;;;;;4962155;28;20512;-19
2023/06/29 08:15:30;;;;;;;12.18;7.40;;;25.00;83.30;;;;;;4958707;28;20072;-19
2023/06/29 08:17:55;;;;;;;13.73;7.35;;;25.00;83.10;;;;;;4961709;28;20038;-20
2023/06/29 08:20:22;;;;;;;13.07;7.40;;;25.00;83.10;;;;;;4971963;28;20022;-19
2023/06/29 08:22:48;;;;;;;14.20;7.15;;;25.00;83.10;;;;;;4935057;28;20023;-19
2023/06/29 08:25:15;;;;;;;19.27;8.23;;;25.00;83.00;;;;;;4968119;28;20061;-19
2023/06/29 08:27:41;;;;;;;17.80;7.43;;;25.00;83.70;;;;;;4966136;28;20109;-19
2023/06/29 08:30:08;;;;;;;13.93;7.38;;;25.10;83.10;;;;;;4947253;28;20325;-19
2023/06/29 08:32:34;;;;;;;12.82;7.40;;;25.10;83.00;;;;;;4962970;28;20267;-19
2023/06/29 08:34:59;;;;;;;12.13;7.20;;;25.10;83.10;;;;;;4968421;28;20389;-19
2023/06/29 08:37:28;;;;;;;12.40;7.20;;;25.20;83.10;;;;;;4934638;28;20820;-18
2023/06/29 08:39:54;;;;;;;18.80;8.38;;;25.20;83.00;;;;;;4968451;28;20465;-19
2023/06/29 08:42:20;;;;;;;18.75;8.13;;;25.20;82.70;;;;;;4978825;28;20027;-19
2023/06/29 08:44:46;;;;;;;13.20;7.90;;;25.30;82.80;;;;;;4966896;28;20034;-19
2023/06/29 08:47:15;;;;;;;13.60;7.75;;;25.30;82.80;;;;;;4965838;28;20037;-19
2023/06/29 08:49:42;;;;;;;13.07;7.47;;;25.30;82.60;;;;;;4969738;28;20029;-19
2023/06/29 08:52:12;;;;;;;14.80;7.95;;;25.40;82.70;;;;;;4965620;28;20539;-19
2023/06/29 08:54:38;;;;;;;15.17;8.40;;;25.50;82.10;;;;;;4965486;28;20019;-19
2023/06/29 08:57:05;;;;;;;13.57;7.82;;;25.50;82.40;;;;;;4969322;28;20034;-19
2023/06/29 08:59:31;;;;;;;16.13;8.55;;;25.60;82.40;;;;;;4977876;28;20152;-19
2023/06/29 09:02:00;;;;;;;14.98;8.23;;;25.70;82.60;;;;;;4953302;28;20125;-19
2023/06/29 09:04:26;;;;;;;15.88;8.65;;;25.70;82.50;;;;;;4952602;28;20108;-19
2023/06/29 09:06:56;;;;;;;13.37;8.30;;;25.90;82.60;;;;;;4966451;28;20026;-19
2023/06/29 09:09:22;;;;;;;16.30;8.80;;;25.90;82.30;;;;;;4924435;28;20540;-18
2023/06/29 09:11:48;;;;;;;17.20;9.02;;;26.00;81.90;;;;;;4965625;28;20389;-19
2023/06/29 09:14:14;;;;;;;18.23;8.57;;;26.10;81.50;;;;;;4962692;28;20041;-19
2023/06/29 09:16:53;;;;;;;17.03;8.77;;;26.10;81.20;;;;;;4954011;28;20034;-19
2023/06/29 09:19:19;;;;;;;14.43;8.70;;;26.20;79.60;;;;;;4976964;28;20571;-19
2023/06/29 09:21:47;;;;;;;14.75;8.93;;;26.20;80.60;;;;;;4958411;28;20031;-19
2023/06/29 09:24:14;;;;;;;14.25;8.75;;;26.20;80.40;;;;;;4941768;28;20065;-19
2023/06/29 09:26:40;;;;;;;16.50;9.50;;;26.10;80.10;;;;;;4968291;28;20149;-19
2023/06/29 09:29:06;;;;;;;15.93;9.38;;;26.10;79.80;;;;;;4968453;28;20042;-19
2023/06/29 09:31:35;;;;;;;15.65;8.73;;;26.10;79.80;;;;;;4969103;28;20176;-19
2023/06/29 09:34:18;;;;;;;13.85;8.73;;;26.10;79.80;;;;;;4967407;28;20538;-19
2023/06/29 09:36:45;;;;;;;14.87;8.93;;;26.10;78.50;;;;;;4969683;28;20550;-18
2023/06/29 09:39:12;;;;;;;15.98;8.63;;;26.10;80.10;;;;;;4952236;28;20149;-19
2023/06/29 09:41:59;;;;;;;15.95;9.00;;;26.10;79.90;;;;;;4966189;28;20637;-19
2023/06/29 09:44:25;;;;;;;17.63;9.68;;;26.10;78.50;;;;;;4963985;28;20030;-19
2023/06/29 09:47:04;;;;;;;16.27;9.27;;;26.10;79.70;;;;;;4942297;28;20268;-19
2023/06/29 09:49:31;;;;;;;18.03;9.73;;;26.10;77.90;;;;;;4960319;28;20426;-19
2023/06/29 09:52:04;;;;;;;16.50;9.40;;;26.10;79.40;;;;;;4980660;28;20121;-18
2023/06/29 09:54:36;;;;;;;18.60;9.98;;;26.10;78.60;;;;;;4946046;28;20041;-19
2023/06/29 09:57:05;;;;;;;15.50;9.02;;;26.10;79.00;;;;;;4969483;28;20053;-19
2023/06/29 09:59:31;;;;;;;17.35;10.18;;;26.10;79.00;;;;;;4969247;28;20122;-19
2023/06/29 10:01:57;;;;;;;15.17;9.20;;;26.20;79.60;;;;;;4968524;28;20274;-18
2023/06/29 10:04:26;;;;;;;16.98;9.20;;;26.20;79.60;;;;;;4956566;28;20122;-18
2023/06/29 10:07:31;;;;;;;15.65;9.38;;;26.30;80.00;;;;;;4979979;28;20224;-19
2023/06/29 10:09:58;;;;;;;17.60;9.85;;;26.40;78.30;;;;;;4938786;28;20221;-19
2023/06/29 10:12:26;;;;;;;18.27;10.43;;;26.50;80.00;;;;;;4968771;28;20113;-19
2023/06/29 10:14:55;;;;;;;16.70;9.53;;;26.50;79.30;;;;;;4967979;28;20109;-19
2023/06/29 10:17:34;;;;;;;15.32;9.30;;;26.60;78.90;;;;;;4965883;28;20027;-19
2023/06/29 10:20:01;;;;;;;17.17;9.85;;;26.60;78.30;;;;;;4968615;28;20128;-19
2023/06/29 10:22:28;;;;;;;17.10;9.75;;;26.70;79.40;;;;;;4980963;28;20027;-19
2023/06/29 10:25:04;;;;;;;17.77;10.02;;;26.80;79.40;;;;;;4941568;28;20696;-19
2023/06/29 10:27:33;;;;;;;17.90;10.40;;;26.80;76.60;;;;;;4965167;28;20059;-19
2023/06/29 10:30:05;;;;;;;16.92;10.32;;;26.80;78.30;;;;;;4966031;28;20133;-19
2023/06/29 10:32:38;;;;;;;17.35;9.95;;;26.80;77.70;;;;;;4967523;28;20420;-19
2023/06/29 10:35:12;;;;;;;15.02;9.82;;;26.90;78.20;;;;;;4936229;28;20512;-19
2023/06/29 10:37:41;;;;;;;16.30;9.70;;;26.90;77.10;;;;;;4963145;28;20088;-19
2023/06/29 10:40:15;;;;;;;17.43;9.80;;;26.90;77.80;;;;;;4940101;28;20654;-19
2023/06/29 10:42:40;;;;;;;17.17;9.88;;;27.00;77.20;;;;;;4966424;28;20022;-19
2023/06/29 10:45:09;;;;;;;18.38;10.80;;;27.00;78.50;;;;;;4952733;28;20069;-19
2023/06/29 10:47:38;;;;;;;17.63;10.17;;;27.10;78.00;;;;;;4965188;28;20069;-19
2023/06/29 10:50:09;;;;;;;15.23;9.48;;;27.20;78.50;;;;;;4937425;28;20564;-19
2023/06/29 10:52:38;;;;;;;15.63;9.50;;;27.30;77.30;;;;;;4981286;28;20049;-19
2023/06/29 10:55:25;;;;;;;15.02;9.43;;;27.50;78.50;;;;;;4970072;28;20082;-19
2023/06/29 10:57:53;;;;;;;16.95;10.07;;;27.70;76.40;;;;;;4953900;28;20279;-19
2023/06/29 11:00:19;;;;;;;15.60;9.67;;;27.90;79.20;;;;;;4972708;28;20058;-19
2023/06/29 11:02:48;;;;;;;17.00;10.35;;;28.10;78.80;;;;;;4967243;28;20034;-18
2023/06/29 11:05:17;;;;;;;17.42;10.70;;;28.30;78.00;;;;;;4947083;28;20989;-18
2023/06/29 11:07:45;;;;;;;16.65;10.48;;;28.40;77.50;;;;;;4967866;28;20034;-19
2023/06/29 11:10:11;;;;;;;23.35;12.40;;;28.70;78.10;;;;;;4980655;28;20053;-19
2023/06/29 11:12:41;;;;;;;20.03;11.53;;;28.80;76.80;;;;;;4940115;28;20038;-19
2023/06/29 11:15:15;;;;;;;16.10;10.98;;;28.90;75.00;;;;;;4965358;28;20038;-19
2023/06/29 11:17:45;;;;;;;16.85;10.85;;;29.00;74.20;;;;;;4968511;28;20037;-19
2023/06/29 11:20:15;;;;;;;17.02;10.85;;;29.10;75.30;;;;;;4934202;28;20155;-19
2023/06/29 11:22:42;;;;;;;19.90;13.05;;;29.30;77.30;;;;;;4969644;28;20026;-19
2023/06/29 11:25:15;;;;;;;18.70;11.77;;;29.50;76.50;;;;;;4968704;28;20035;-19
2023/06/29 11:27:45;;;;;;;18.40;11.70;;;29.70;76.10;;;;;;4943049;28;20037;-19
2023/06/29 11:30:12;;;;;;;19.67;12.07;;;29.90;74.70;;;;;;4983960;28;20027;-19
2023/06/29 11:32:39;;;;;;;17.48;11.43;;;30.00;74.50;;;;;;4985350;28;20026;-19
2023/06/29 11:35:08;;;;;;;18.80;12.32;;;30.20;75.00;;;;;;4954938;28;20060;-19
2023/06/29 11:37:35;;;;;;;20.53;12.80;;;30.30;73.60;;;;;;4951232;28;20026;-19
2023/06/29 11:40:07;;;;;;;20.20;12.77;;;30.40;73.60;;;;;;4970126;28;20101;-19
2023/06/29 11:42:36;;;;;;;18.20;12.13;;;30.50;72.20;;;;;;4940776;28;20035;-19
2023/06/29 11:45:09;;;;;;;18.10;12.05;;;30.60;72.80;;;;;;4949765;28;20670;-19
2023/06/29 11:47:35;;;;;;;18.25;11.95;;;30.60;71.10;;;;;;4976133;28;20097;-19
2023/06/29 11:50:03;;;;;;;18.20;12.13;;;30.70;71.80;;;;;;4955091;28;20386;-20
2023/06/29 11:52:32;;;;;;;16.80;11.43;;;30.70;71.20;;;;;;4961556;28;20371;-19
2023/06/29 11:55:03;;;;;;;17.95;12.07;;;30.70;69.40;;;;;;4966856;28;20382;-19
2023/06/29 11:57:36;;;;;;;17.90;11.95;;;30.70;68.90;;;;;;4937826;28;20035;-19
2023/06/29 12:00:23;;;;;;;20.30;11.98;;;30.60;67.70;;;;;;4967455;28;20039;-19
2023/06/29 12:02:49;;;;;;;19.40;11.80;;;30.50;68.50;;;;;;4957055;28;20045;-19
2023/06/29 12:05:14;;;;;;;20.35;12.07;;;30.30;68.00;;;;;;4949613;28;20030;-19
2023/06/29 12:07:47;;;;;;;19.73;11.60;;;30.10;67.80;;;;;;4952548;28;20477;-19
2023/06/29 12:10:19;;;;;;;16.17;10.30;;;29.90;66.70;;;;;;4961084;28;20022;-19
2023/06/29 12:12:48;;;;;;;18.13;11.25;;;29.70;67.90;;;;;;4964118;28;20069;-19
2023/06/29 12:15:23;;;;;;;18.15;11.43;;;29.50;67.80;;;;;;4947090;28;20034;-19
2023/06/29 12:17:50;;;;;;;18.05;11.00;;;29.40;67.40;;;;;;4965828;28;20030;-19
2023/06/29 12:20:16;;;;;;;18.90;11.75;;;29.30;68.70;;;;;;4962725;28;20136;-19
2023/06/29 12:22:43;;;;;;;19.03;11.33;;;29.30;69.30;;;;;;4945888;28;20088;-19
2023/06/29 12:25:11;;;;;;;18.30;11.20;;;29.20;68.90;;;;;;4947990;28;20093;-19
2023/06/29 12:27:37;;;;;;;19.35;11.35;;;29.20;68.90;;;;;;4966365;28;20138;-19
2023/06/29 12:30:04;;;;;;;18.13;11.13;;;29.20;69.20;;;;;;4938065;28;20030;-19
2023/06/29 12:32:30;;;;;;;19.27;11.82;;;29.10;69.30;;;;;;4980073;28;20128;-19
2023/06/29 12:34:55;;;;;;;20.83;12.32;;;29.20;69.70;;;;;;4964378;28;20042;-19
2023/06/29 12:37:21;;;;;;;19.90;12.10;;;29.20;69.70;;;;;;4962053;28;23194;-19
2023/06/29 12:39:48;;;;;;;18.17;11.38;;;29.30;70.20;;;;;;4949861;28;20034;-19